DAL1689 KCLE-KSYR
Flight info
| Callsign | DAL1689 |
|---|---|
| Flight time | 0h 57m |
| Altitude | 33000 |
| Route | PFLYD1 DUUKR DKK |
| Aircraft | A320/M-SDE3FGHIRWY/LB1 |
Departure
| Time | 2026-04-24 01:21 |
|---|---|
| Airport | Cleveland Hopkins International Airport (KCLE) |
Arrival
| Time | 2026-04-24 02:18 |
|---|---|
| Airport | Syracuse Hancock International Airport (KSYR) |
| Time | Latitude | Longitude | Altitude | Speed | Heading |
|---|---|---|---|---|---|
| 2026-04-24 00:55 | 41.41176 | -81.84000 | 797 ft | 0 kts | 190° |
| 2026-04-24 01:08 | 41.41180 | -81.83999 | 797 ft | 2 kts | 187° |
| 2026-04-24 01:08 | 41.41196 | -81.83994 | 797 ft | 2 kts | 188° |
| 2026-04-24 01:08 | 41.41212 | -81.83991 | 797 ft | 2 kts | 176° |
| 2026-04-24 01:08 | 41.41229 | -81.83992 | 797 ft | 2 kts | 166° |
| 2026-04-24 01:09 | 41.41244 | -81.83998 | 798 ft | 2 kts | 166° |
| 2026-04-24 01:09 | 41.41260 | -81.84002 | 798 ft | 2 kts | 177° |
| 2026-04-24 01:09 | 41.41276 | -81.84002 | 798 ft | 2 kts | 187° |
| 2026-04-24 01:09 | 41.41293 | -81.83998 | 799 ft | 2 kts | 190° |
| 2026-04-24 01:10 | 41.41305 | -81.83995 | 799 ft | 1 kts | 191° |
| 2026-04-24 01:11 | 41.41304 | -81.83996 | 799 ft | 1 kts | 191° |
| 2026-04-24 01:12 | 41.41294 | -81.83998 | 799 ft | 2 kts | 191° |
| 2026-04-24 01:12 | 41.41269 | -81.84011 | 798 ft | 4 kts | 212° |
| 2026-04-24 01:12 | 41.41256 | -81.84056 | 798 ft | 6 kts | 266° |
| 2026-04-24 01:12 | 41.41254 | -81.84104 | 799 ft | 4 kts | 267° |
| 2026-04-24 01:13 | 41.41253 | -81.84127 | 799 ft | 1 kts | 267° |
| 2026-04-24 01:13 | 41.41253 | -81.84135 | 799 ft | 3 kts | 266° |
| 2026-04-24 01:13 | 41.41251 | -81.84181 | 799 ft | 5 kts | 266° |
| 2026-04-24 01:13 | 41.41251 | -81.84189 | 799 ft | 0 kts | 266° |
| 2026-04-24 01:14 | 41.41251 | -81.84190 | 799 ft | 1 kts | 266° |
| 2026-04-24 01:14 | 41.41249 | -81.84222 | 799 ft | 7 kts | 266° |
| 2026-04-24 01:15 | 41.41246 | -81.84305 | 799 ft | 9 kts | 264° |
| 2026-04-24 01:15 | 41.41231 | -81.84401 | 797 ft | 13 kts | 262° |
| 2026-04-24 01:15 | 41.41198 | -81.84507 | 796 ft | 12 kts | 230° |
| 2026-04-24 01:15 | 41.41136 | -81.84606 | 798 ft | 16 kts | 230° |
| 2026-04-24 01:16 | 41.41054 | -81.84736 | 795 ft | 20 kts | 231° |
| 2026-04-24 01:16 | 41.40957 | -81.84886 | 794 ft | 22 kts | 229° |
| 2026-04-24 01:16 | 41.40866 | -81.85033 | 788 ft | 22 kts | 230° |
| 2026-04-24 01:16 | 41.40764 | -81.85191 | 786 ft | 24 kts | 229° |
| 2026-04-24 01:17 | 41.40611 | -81.85435 | 786 ft | 26 kts | 230° |
| 2026-04-24 01:17 | 41.40533 | -81.85558 | 785 ft | 27 kts | 230° |
| 2026-04-24 01:17 | 41.40420 | -81.85741 | 785 ft | 23 kts | 231° |
| 2026-04-24 01:17 | 41.40327 | -81.85883 | 781 ft | 19 kts | 227° |
| 2026-04-24 01:18 | 41.40224 | -81.85950 | 779 ft | 17 kts | 186° |
| 2026-04-24 01:18 | 41.40117 | -81.86020 | 775 ft | 18 kts | 227° |
| 2026-04-24 01:18 | 41.40030 | -81.86157 | 774 ft | 20 kts | 230° |
| 2026-04-24 01:18 | 41.39932 | -81.86311 | 773 ft | 23 kts | 230° |
| 2026-04-24 01:19 | 41.39832 | -81.86469 | 775 ft | 23 kts | 230° |
| 2026-04-24 01:19 | 41.39751 | -81.86599 | 775 ft | 19 kts | 230° |
| 2026-04-24 01:19 | 41.39665 | -81.86731 | 773 ft | 15 kts | 228° |
| 2026-04-24 01:19 | 41.39672 | -81.86839 | 769 ft | 13 kts | 321° |
| 2026-04-24 01:20 | 41.39742 | -81.86914 | 766 ft | 11 kts | 322° |
| 2026-04-24 01:20 | 41.39805 | -81.86925 | 768 ft | 8 kts | 32° |
| 2026-04-24 01:20 | 41.39830 | -81.86890 | 769 ft | 3 kts | 49° |
| 2026-04-24 01:20 | 41.39874 | -81.86822 | 771 ft | 35 kts | 50° |
| 2026-04-24 01:21 | 41.40228 | -81.86263 | 772 ft | 121 kts | 49° |
| 2026-04-24 01:21 | 41.40917 | -81.85176 | 900 ft | 175 kts | 52° |
| 2026-04-24 01:21 | 41.41698 | -81.83950 | 1772 ft | 175 kts | 51° |
| 2026-04-24 01:21 | 41.42495 | -81.82705 | 2642 ft | 179 kts | 46° |
| 2026-04-24 01:22 | 41.43528 | -81.81756 | 3496 ft | 182 kts | 21° |
| 2026-04-24 01:22 | 41.44723 | -81.81117 | 3953 ft | 193 kts | 20° |
| 2026-04-24 01:22 | 41.46039 | -81.80406 | 4185 ft | 215 kts | 20° |
| 2026-04-24 01:22 | 41.47489 | -81.79555 | 4428 ft | 242 kts | 31° |
| 2026-04-24 01:23 | 41.48768 | -81.77937 | 4798 ft | 267 kts | 49° |
| 2026-04-24 01:23 | 41.50015 | -81.75972 | 5374 ft | 283 kts | 49° |
| 2026-04-24 01:23 | 41.51290 | -81.73946 | 6231 ft | 287 kts | 49° |
| 2026-04-24 01:23 | 41.52579 | -81.71887 | 7086 ft | 290 kts | 49° |
| 2026-04-24 01:24 | 41.53856 | -81.69839 | 7954 ft | 292 kts | 50° |
| 2026-04-24 01:24 | 41.55162 | -81.67741 | 8790 ft | 296 kts | 49° |
| 2026-04-24 01:24 | 41.56487 | -81.65626 | 9671 ft | 298 kts | 49° |
| 2026-04-24 01:24 | 41.57826 | -81.63506 | 10486 ft | 300 kts | 49° |
| 2026-04-24 01:25 | 41.59219 | -81.61313 | 10869 ft | 320 kts | 49° |
| 2026-04-24 01:25 | 41.60701 | -81.58966 | 11120 ft | 342 kts | 49° |
| 2026-04-24 01:25 | 41.62239 | -81.56472 | 11689 ft | 350 kts | 50° |
| 2026-04-24 01:25 | 41.63788 | -81.53965 | 12575 ft | 349 kts | 49° |
| 2026-04-24 01:26 | 41.65218 | -81.51390 | 13320 ft | 354 kts | 58° |
| 2026-04-24 01:26 | 41.66449 | -81.48512 | 13800 ft | 359 kts | 59° |
| 2026-04-24 01:26 | 41.67675 | -81.45614 | 13926 ft | 357 kts | 60° |
| 2026-04-24 01:26 | 41.68898 | -81.42719 | 14016 ft | 357 kts | 60° |
| 2026-04-24 01:27 | 41.70120 | -81.39818 | 14044 ft | 358 kts | 59° |
| 2026-04-24 01:27 | 41.71362 | -81.36939 | 14029 ft | 357 kts | 59° |
| 2026-04-24 01:27 | 41.72615 | -81.34078 | 14024 ft | 357 kts | 59° |
| 2026-04-24 01:27 | 41.73871 | -81.31215 | 14031 ft | 357 kts | 59° |
| 2026-04-24 01:28 | 41.75108 | -81.28373 | 14167 ft | 361 kts | 59° |
| 2026-04-24 01:28 | 41.76368 | -81.25451 | 14843 ft | 363 kts | 59° |
| 2026-04-24 01:28 | 41.77619 | -81.22531 | 15457 ft | 367 kts | 59° |
| 2026-04-24 01:28 | 41.78895 | -81.19535 | 16047 ft | 372 kts | 59° |
| 2026-04-24 01:29 | 41.80185 | -81.16502 | 16637 ft | 377 kts | 59° |
| 2026-04-24 01:29 | 41.81494 | -81.13423 | 17215 ft | 382 kts | 58° |
| 2026-04-24 01:29 | 41.82819 | -81.10311 | 17784 ft | 387 kts | 58° |
| 2026-04-24 01:29 | 41.84163 | -81.07158 | 18349 ft | 392 kts | 58° |
| 2026-04-24 01:30 | 41.85521 | -81.03965 | 18855 ft | 396 kts | 58° |
| 2026-04-24 01:30 | 41.86893 | -81.00736 | 19375 ft | 400 kts | 58° |
| 2026-04-24 01:30 | 41.88276 | -80.97482 | 19902 ft | 403 kts | 58° |
| 2026-04-24 01:30 | 41.89650 | -80.94244 | 20441 ft | 406 kts | 58° |
| 2026-04-24 01:31 | 41.91054 | -80.90928 | 20976 ft | 410 kts | 58° |
| 2026-04-24 01:31 | 41.92468 | -80.87591 | 21521 ft | 413 kts | 57° |
| 2026-04-24 01:31 | 41.93891 | -80.84232 | 22058 ft | 416 kts | 57° |
| 2026-04-24 01:31 | 41.95326 | -80.80842 | 22593 ft | 419 kts | 57° |
| 2026-04-24 01:32 | 41.96771 | -80.77436 | 23095 ft | 422 kts | 56° |
| 2026-04-24 01:32 | 41.98240 | -80.74004 | 23600 ft | 425 kts | 57° |
| 2026-04-24 01:32 | 41.99670 | -80.70505 | 23992 ft | 429 kts | 58° |
| 2026-04-24 01:32 | 42.01037 | -80.66921 | 24396 ft | 432 kts | 60° |
| 2026-04-24 01:33 | 42.02351 | -80.63260 | 24802 ft | 436 kts | 61° |
| 2026-04-24 01:33 | 42.03615 | -80.59604 | 25198 ft | 438 kts | 62° |
| 2026-04-24 01:33 | 42.04889 | -80.55879 | 25578 ft | 441 kts | 62° |
| 2026-04-24 01:33 | 42.06181 | -80.52120 | 25962 ft | 443 kts | 61° |
| 2026-04-24 01:34 | 42.07488 | -80.48351 | 26323 ft | 446 kts | 60° |
| 2026-04-24 01:34 | 42.08813 | -80.44563 | 26679 ft | 448 kts | 60° |
| 2026-04-24 01:34 | 42.10150 | -80.40759 | 27034 ft | 451 kts | 60° |
| 2026-04-24 01:34 | 42.11495 | -80.36935 | 27383 ft | 453 kts | 60° |
| 2026-04-24 01:35 | 42.12846 | -80.33085 | 27725 ft | 456 kts | 60° |
| 2026-04-24 01:35 | 42.14200 | -80.29217 | 28068 ft | 458 kts | 60° |
| 2026-04-24 01:35 | 42.15559 | -80.25318 | 28400 ft | 461 kts | 60° |
| 2026-04-24 01:35 | 42.16903 | -80.21454 | 28723 ft | 463 kts | 60° |
| 2026-04-24 01:36 | 42.18272 | -80.17517 | 29036 ft | 465 kts | 60° |
| 2026-04-24 01:36 | 42.19648 | -80.13553 | 29374 ft | 468 kts | 60° |
| 2026-04-24 01:36 | 42.21028 | -80.09570 | 29687 ft | 470 kts | 60° |
| 2026-04-24 01:36 | 42.22416 | -80.05558 | 29986 ft | 472 kts | 60° |
| 2026-04-24 01:37 | 42.23805 | -80.01537 | 30225 ft | 474 kts | 60° |
| 2026-04-24 01:37 | 42.25196 | -79.97496 | 30466 ft | 476 kts | 60° |
| 2026-04-24 01:37 | 42.26588 | -79.93440 | 30716 ft | 478 kts | 60° |
| 2026-04-24 01:37 | 42.27987 | -79.89367 | 30945 ft | 479 kts | 60° |
| 2026-04-24 01:38 | 42.29392 | -79.85266 | 31164 ft | 481 kts | 60° |
| 2026-04-24 01:38 | 42.30777 | -79.81227 | 31394 ft | 482 kts | 60° |
| 2026-04-24 01:38 | 42.32189 | -79.77118 | 31732 ft | 480 kts | 60° |
| 2026-04-24 01:38 | 42.33587 | -79.73030 | 32076 ft | 479 kts | 60° |
| 2026-04-24 01:39 | 42.34980 | -79.68941 | 32382 ft | 478 kts | 60° |
| 2026-04-24 01:39 | 42.36369 | -79.64856 | 32682 ft | 478 kts | 60° |
| 2026-04-24 01:39 | 42.37756 | -79.60789 | 32936 ft | 478 kts | 60° |
| 2026-04-24 01:40 | 42.40461 | -79.52828 | 32984 ft | 464 kts | 60° |
| 2026-04-24 01:40 | 42.43137 | -79.44912 | 32994 ft | 461 kts | 60° |
| 2026-04-24 01:41 | 42.45801 | -79.37023 | 32989 ft | 460 kts | 60° |
| 2026-04-24 01:41 | 42.48452 | -79.29131 | 32982 ft | 460 kts | 60° |
| 2026-04-24 01:42 | 42.50655 | -79.20938 | 32995 ft | 466 kts | 69° |
| 2026-04-24 01:42 | 42.52433 | -79.12484 | 33005 ft | 466 kts | 69° |
| 2026-04-24 01:43 | 42.54197 | -79.04081 | 33019 ft | 466 kts | 69° |
| 2026-04-24 01:43 | 42.55964 | -78.95618 | 33011 ft | 466 kts | 69° |
| 2026-04-24 01:44 | 42.57715 | -78.87145 | 33007 ft | 467 kts | 69° |
| 2026-04-24 01:44 | 42.59460 | -78.78655 | 33001 ft | 467 kts | 69° |
| 2026-04-24 01:45 | 42.61202 | -78.70182 | 33002 ft | 467 kts | 69° |
| 2026-04-24 01:45 | 42.62934 | -78.61748 | 33029 ft | 467 kts | 69° |
| 2026-04-24 01:46 | 42.64664 | -78.53256 | 33022 ft | 466 kts | 69° |
| 2026-04-24 01:46 | 42.66379 | -78.44765 | 33025 ft | 466 kts | 69° |
| 2026-04-24 01:47 | 42.68102 | -78.36287 | 33018 ft | 465 kts | 69° |
| 2026-04-24 01:47 | 42.69811 | -78.27806 | 33018 ft | 465 kts | 69° |
| 2026-04-24 01:48 | 42.71500 | -78.19388 | 33019 ft | 465 kts | 69° |
| 2026-04-24 01:48 | 42.73195 | -78.10898 | 33019 ft | 465 kts | 69° |
| 2026-04-24 01:49 | 42.74879 | -78.02424 | 33012 ft | 465 kts | 69° |
| 2026-04-24 01:49 | 42.76560 | -77.93934 | 33031 ft | 464 kts | 69° |
| 2026-04-24 01:50 | 42.78236 | -77.85450 | 33024 ft | 464 kts | 69° |
| 2026-04-24 01:50 | 42.79890 | -77.77027 | 32910 ft | 464 kts | 69° |
| 2026-04-24 01:50 | 42.80714 | -77.72790 | 32321 ft | 462 kts | 69° |
| 2026-04-24 01:51 | 42.81534 | -77.68581 | 31732 ft | 459 kts | 69° |
| 2026-04-24 01:51 | 42.82355 | -77.64386 | 31162 ft | 456 kts | 69° |
| 2026-04-24 01:51 | 42.83171 | -77.60221 | 30579 ft | 455 kts | 69° |
| 2026-04-24 01:51 | 42.83978 | -77.56062 | 30003 ft | 453 kts | 69° |
| 2026-04-24 01:52 | 42.84779 | -77.51925 | 29387 ft | 450 kts | 69° |
| 2026-04-24 01:52 | 42.85571 | -77.47815 | 28837 ft | 447 kts | 69° |
| 2026-04-24 01:52 | 42.86347 | -77.43787 | 28293 ft | 443 kts | 69° |
| 2026-04-24 01:52 | 42.87136 | -77.39695 | 27750 ft | 439 kts | 69° |
| 2026-04-24 01:53 | 42.87901 | -77.35735 | 27217 ft | 436 kts | 69° |
| 2026-04-24 01:53 | 42.88678 | -77.31708 | 26241 ft | 443 kts | 69° |
| 2026-04-24 01:53 | 42.89457 | -77.27638 | 25122 ft | 444 kts | 69° |
| 2026-04-24 01:53 | 42.90231 | -77.23570 | 24044 ft | 442 kts | 69° |
| 2026-04-24 01:54 | 42.91000 | -77.19541 | 22876 ft | 433 kts | 69° |
| 2026-04-24 01:54 | 42.91749 | -77.15590 | 21680 ft | 431 kts | 69° |
| 2026-04-24 01:54 | 42.92495 | -77.11632 | 20512 ft | 431 kts | 69° |
| 2026-04-24 01:54 | 42.93237 | -77.07683 | 19383 ft | 430 kts | 69° |
| 2026-04-24 01:55 | 42.93984 | -77.03736 | 18273 ft | 429 kts | 68° |
| 2026-04-24 01:55 | 42.94730 | -76.99790 | 16993 ft | 428 kts | 68° |
| 2026-04-24 01:55 | 42.95468 | -76.95871 | 15771 ft | 426 kts | 68° |
| 2026-04-24 01:55 | 42.96190 | -76.92017 | 14606 ft | 423 kts | 68° |
| 2026-04-24 01:56 | 42.96911 | -76.88141 | 13421 ft | 418 kts | 68° |
| 2026-04-24 01:56 | 42.97616 | -76.84327 | 12199 ft | 413 kts | 69° |
| 2026-04-24 01:56 | 42.98305 | -76.80585 | 11449 ft | 393 kts | 69° |
| 2026-04-24 01:56 | 42.98935 | -76.77105 | 11173 ft | 363 kts | 68° |
| 2026-04-24 01:57 | 42.99521 | -76.73866 | 11015 ft | 343 kts | 68° |
| 2026-04-24 01:57 | 43.00101 | -76.70743 | 10998 ft | 339 kts | 67° |
| 2026-04-24 01:57 | 43.00691 | -76.67635 | 10995 ft | 338 kts | 67° |
| 2026-04-24 01:57 | 43.01283 | -76.64528 | 11000 ft | 338 kts | 67° |
| 2026-04-24 01:58 | 43.01869 | -76.61424 | 10990 ft | 337 kts | 67° |
| 2026-04-24 01:58 | 43.02688 | -76.58517 | 10638 ft | 318 kts | 48° |
| 2026-04-24 01:58 | 43.04122 | -76.56473 | 10353 ft | 289 kts | 22° |
| 2026-04-24 01:58 | 43.05889 | -76.55578 | 10181 ft | 259 kts | 357° |
| 2026-04-24 01:59 | 43.07648 | -76.55583 | 9847 ft | 251 kts | 349° |
| 2026-04-24 01:59 | 43.09380 | -76.55746 | 9423 ft | 250 kts | 349° |
| 2026-04-24 01:59 | 43.11113 | -76.55947 | 8987 ft | 250 kts | 348° |
| 2026-04-24 01:59 | 43.12845 | -76.56170 | 8562 ft | 250 kts | 348° |
| 2026-04-24 02:00 | 43.14570 | -76.56414 | 8117 ft | 250 kts | 348° |
| 2026-04-24 02:00 | 43.16293 | -76.56683 | 7684 ft | 250 kts | 348° |
| 2026-04-24 02:00 | 43.17997 | -76.56968 | 7264 ft | 250 kts | 348° |
| 2026-04-24 02:00 | 43.19741 | -76.57282 | 6830 ft | 250 kts | 348° |
| 2026-04-24 02:01 | 43.21442 | -76.57610 | 6401 ft | 251 kts | 348° |
| 2026-04-24 02:01 | 43.23168 | -76.57960 | 5961 ft | 250 kts | 348° |
| 2026-04-24 02:01 | 43.24885 | -76.58332 | 5543 ft | 249 kts | 348° |
| 2026-04-24 02:01 | 43.26602 | -76.58688 | 5097 ft | 250 kts | 355° |
| 2026-04-24 02:02 | 43.28302 | -76.58234 | 4652 ft | 255 kts | 24° |
| 2026-04-24 02:02 | 43.29651 | -76.56631 | 4214 ft | 261 kts | 53° |
| 2026-04-24 02:02 | 43.30267 | -76.54293 | 3792 ft | 266 kts | 83° |
| 2026-04-24 02:02 | 43.29983 | -76.51788 | 3388 ft | 270 kts | 112° |
| 2026-04-24 02:03 | 43.27905 | -76.47534 | 2993 ft | 272 kts | 116° |
| 2026-04-24 02:03 | 43.27072 | -76.45285 | 2994 ft | 256 kts | 114° |
| 2026-04-24 02:03 | 43.26340 | -76.43170 | 2995 ft | 234 kts | 112° |
| 2026-04-24 02:04 | 43.25685 | -76.41223 | 2989 ft | 218 kts | 112° |
| 2026-04-24 02:04 | 43.25064 | -76.39360 | 2999 ft | 212 kts | 111° |
| 2026-04-24 02:04 | 43.24456 | -76.37533 | 2992 ft | 210 kts | 111° |
| 2026-04-24 02:04 | 43.23849 | -76.35720 | 2999 ft | 214 kts | 112° |
| 2026-04-24 02:05 | 43.23197 | -76.33778 | 3002 ft | 229 kts | 112° |
| 2026-04-24 02:05 | 43.22535 | -76.31812 | 2999 ft | 231 kts | 112° |
| 2026-04-24 02:05 | 43.21855 | -76.29815 | 3004 ft | 232 kts | 112° |
| 2026-04-24 02:05 | 43.21187 | -76.27862 | 2997 ft | 218 kts | 112° |
| 2026-04-24 02:06 | 43.20566 | -76.26056 | 3026 ft | 196 kts | 112° |
| 2026-04-24 02:06 | 43.20008 | -76.24436 | 2818 ft | 182 kts | 111° |
| 2026-04-24 02:06 | 43.19489 | -76.22926 | 2618 ft | 168 kts | 111° |
| 2026-04-24 02:06 | 43.19009 | -76.21518 | 2398 ft | 160 kts | 111° |
| 2026-04-24 02:07 | 43.18414 | -76.20253 | 2187 ft | 159 kts | 132° |
| 2026-04-24 02:07 | 43.17653 | -76.19175 | 1989 ft | 156 kts | 132° |
| 2026-04-24 02:07 | 43.16914 | -76.18121 | 1778 ft | 155 kts | 133° |
| 2026-04-24 02:07 | 43.16171 | -76.17064 | 1575 ft | 153 kts | 133° |
| 2026-04-24 02:08 | 43.15436 | -76.16019 | 1375 ft | 151 kts | 133° |
| 2026-04-24 02:08 | 43.14719 | -76.14997 | 1172 ft | 147 kts | 133° |
| 2026-04-24 02:08 | 43.14027 | -76.13987 | 970 ft | 144 kts | 132° |
| 2026-04-24 02:08 | 43.13337 | -76.13004 | 800 ft | 142 kts | 133° |
| 2026-04-24 02:09 | 43.12656 | -76.12030 | 598 ft | 141 kts | 133° |
| 2026-04-24 02:09 | 43.11979 | -76.11076 | 416 ft | 139 kts | 132° |
| 2026-04-24 02:09 | 43.11392 | -76.10238 | 421 ft | 108 kts | 134° |
| 2026-04-24 02:09 | 43.10835 | -76.09439 | 460 ft | 140 kts | 136° |
| 2026-04-24 02:10 | 43.10127 | -76.08454 | 1094 ft | 148 kts | 133° |
| 2026-04-24 02:10 | 43.09390 | -76.07396 | 1785 ft | 159 kts | 133° |
| 2026-04-24 02:10 | 43.08583 | -76.06233 | 2360 ft | 182 kts | 133° |
| 2026-04-24 02:10 | 43.07673 | -76.04908 | 2612 ft | 202 kts | 132° |
| 2026-04-24 02:11 | 43.06653 | -76.03413 | 2889 ft | 229 kts | 132° |
| 2026-04-24 02:11 | 43.05498 | -76.01854 | 3568 ft | 238 kts | 144° |
| 2026-04-24 02:11 | 43.03955 | -76.00988 | 3907 ft | 241 kts | 176° |
| 2026-04-24 02:11 | 43.02359 | -76.01281 | 3987 ft | 233 kts | 209° |
| 2026-04-24 02:12 | 43.01155 | -76.02644 | 3999 ft | 221 kts | 244° |
| 2026-04-24 02:12 | 43.00743 | -76.04578 | 3997 ft | 211 kts | 278° |
| 2026-04-24 02:12 | 43.01216 | -76.06392 | 4000 ft | 203 kts | 310° |
| 2026-04-24 02:12 | 43.02170 | -76.07830 | 4000 ft | 204 kts | 317° |
| 2026-04-24 02:13 | 43.03189 | -76.09172 | 4001 ft | 204 kts | 318° |
| 2026-04-24 02:13 | 43.04227 | -76.10505 | 3999 ft | 204 kts | 318° |
| 2026-04-24 02:13 | 43.05269 | -76.11834 | 3998 ft | 205 kts | 318° |
| 2026-04-24 02:13 | 43.06300 | -76.13139 | 4000 ft | 205 kts | 318° |
| 2026-04-24 02:14 | 43.07345 | -76.14463 | 3991 ft | 205 kts | 318° |
| 2026-04-24 02:14 | 43.08391 | -76.15792 | 3975 ft | 207 kts | 318° |
| 2026-04-24 02:14 | 43.09448 | -76.17143 | 3560 ft | 206 kts | 318° |
| 2026-04-24 02:14 | 43.10490 | -76.18464 | 3046 ft | 204 kts | 319° |
| 2026-04-24 02:15 | 43.11535 | -76.19773 | 2538 ft | 203 kts | 319° |
| 2026-04-24 02:15 | 43.12679 | -76.20838 | 2175 ft | 199 kts | 340° |
| 2026-04-24 02:15 | 43.14050 | -76.20985 | 2064 ft | 203 kts | 14° |
| 2026-04-24 02:15 | 43.15188 | -76.20012 | 2130 ft | 182 kts | 40° |
| 2026-04-24 02:16 | 43.16036 | -76.18867 | 2035 ft | 164 kts | 41° |
| 2026-04-24 02:16 | 43.16684 | -76.17594 | 1686 ft | 167 kts | 68° |
| 2026-04-24 02:16 | 43.16663 | -76.16070 | 1403 ft | 160 kts | 112° |
| 2026-04-24 02:16 | 43.15886 | -76.15113 | 1206 ft | 150 kts | 159° |
| 2026-04-24 02:17 | 43.14930 | -76.14615 | 1075 ft | 146 kts | 156° |
| 2026-04-24 02:17 | 43.14054 | -76.13926 | 875 ft | 144 kts | 139° |
| 2026-04-24 02:17 | 43.13338 | -76.13010 | 741 ft | 142 kts | 131° |
| 2026-04-24 02:17 | 43.12660 | -76.12040 | 574 ft | 141 kts | 133° |
| 2026-04-24 02:18 | 43.11988 | -76.11096 | 420 ft | 132 kts | 133° |
| 2026-04-24 02:18 | 43.11557 | -76.10478 | 417 ft | 84 kts | 134° |
| 2026-04-24 02:18 | 43.11354 | -76.10195 | 419 ft | 32 kts | 134° |
| 2026-04-24 02:18 | 43.11169 | -76.09933 | 416 ft | 25 kts | 134° |
| 2026-04-24 02:19 | 43.11058 | -76.09804 | 411 ft | 9 kts | 186° |
| 2026-04-24 02:19 | 43.11039 | -76.09864 | 414 ft | 11 kts | 252° |
| 2026-04-24 02:19 | 43.11034 | -76.09955 | 417 ft | 8 kts | 267° |
| 2026-04-24 02:19 | 43.11033 | -76.09982 | 418 ft | 0 kts | 267° |
| 2026-04-24 02:20 | 43.11033 | -76.09989 | 418 ft | 4 kts | 267° |
| 2026-04-24 02:20 | 43.11032 | -76.10023 | 418 ft | 2 kts | 271° |
| 2026-04-24 02:20 | 43.11047 | -76.10040 | 409 ft | 8 kts | 332° |
| 2026-04-24 02:20 | 43.11135 | -76.10120 | 417 ft | 20 kts | 315° |
| 2026-04-24 02:21 | 43.11231 | -76.10256 | 415 ft | 20 kts | 314° |